createdAt,value
2023-05-05T00:01:25.240Z,18.21
2023-05-05T00:03:51.806Z,18.26
2023-05-05T00:06:18.426Z,18.28
2023-05-05T00:08:44.876Z,18.23
2023-05-05T00:11:11.908Z,18.29
2023-05-05T00:13:38.792Z,18.32
2023-05-05T00:16:05.982Z,18.36
2023-05-05T00:18:33.748Z,18.36
2023-05-05T00:21:00.167Z,18.34
2023-05-05T00:23:26.631Z,18.31
2023-05-05T00:25:53.055Z,18.29
2023-05-05T00:28:19.573Z,18.32
2023-05-05T00:30:46.056Z,18.36
2023-05-05T00:33:12.583Z,18.38
2023-05-05T00:35:38.969Z,18.38
2023-05-05T00:38:05.382Z,18.41
2023-05-05T00:40:31.837Z,18.37
2023-05-05T00:42:59.809Z,18.39
2023-05-05T00:45:26.294Z,18.40
2023-05-05T00:47:56.948Z,18.40
2023-05-05T00:50:29.219Z,18.37
2023-05-05T00:53:06.498Z,18.36
2023-05-05T00:55:34.216Z,18.35
2023-05-05T00:58:02.878Z,18.33
2023-05-05T01:00:30.080Z,18.32
2023-05-05T01:02:56.758Z,18.31
2023-05-05T01:05:25.836Z,18.31
2023-05-05T01:08:15.436Z,18.32
2023-05-05T01:10:51.813Z,18.31
2023-05-05T01:13:46.079Z,18.31
2023-05-05T01:16:22.803Z,18.31
2023-05-05T01:19:26.306Z,18.20
2023-05-05T01:22:07.195Z,18.27
2023-05-05T01:24:39.790Z,18.24
2023-05-05T01:27:21.387Z,18.27
2023-05-05T01:30:05.441Z,18.27
2023-05-05T01:32:35.676Z,18.23
2023-05-05T01:35:27.315Z,18.30
2023-05-05T01:38:08.821Z,18.31
2023-05-05T01:40:40.857Z,18.27
2023-05-05T01:43:09.660Z,18.32
2023-05-05T01:45:41.514Z,18.33
2023-05-05T01:48:09.053Z,18.32
2023-05-05T01:50:36.760Z,18.32
2023-05-05T01:53:04.900Z,18.31
2023-05-05T01:55:34.537Z,18.30
2023-05-05T01:58:02.232Z,18.29
2023-05-05T02:00:30.637Z,18.24
2023-05-05T02:02:59.678Z,18.22
2023-05-05T02:05:28.087Z,18.21
2023-05-05T02:07:59.025Z,18.18
2023-05-05T02:10:28.048Z,18.11
2023-05-05T02:12:56.464Z,18.07
2023-05-05T02:15:25.007Z,18.06
2023-05-05T02:17:52.992Z,18.07
2023-05-05T02:20:20.566Z,18.05
2023-05-05T02:22:47.261Z,18.00
2023-05-05T02:25:13.870Z,17.96
2023-05-05T02:27:43.812Z,17.92
2023-05-05T02:30:15.889Z,17.84
2023-05-05T02:32:54.558Z,17.80
2023-05-05T02:35:24.368Z,17.77
2023-05-05T02:37:53.341Z,17.77
2023-05-05T02:40:24.355Z,17.77
2023-05-05T02:42:54.267Z,17.76
2023-05-05T02:45:23.073Z,17.72
2023-05-05T02:47:49.500Z,17.69
2023-05-05T02:50:16.071Z,17.69
2023-05-05T02:52:43.245Z,17.67
2023-05-05T02:55:10.175Z,17.62
2023-05-05T02:57:53.550Z,17.57
2023-05-05T03:00:28.966Z,17.51
2023-05-05T03:03:02.297Z,17.46
2023-05-05T03:05:42.866Z,17.42
2023-05-05T03:08:13.989Z,17.33
2023-05-05T03:10:50.322Z,17.29
2023-05-05T03:13:20.316Z,17.24
2023-05-05T03:15:49.573Z,17.17
2023-05-05T03:18:18.200Z,17.11
2023-05-05T03:20:45.269Z,17.04
2023-05-05T03:23:13.411Z,17.03
2023-05-05T03:25:47.756Z,16.98
2023-05-05T03:28:16.373Z,16.94
2023-05-05T03:30:43.034Z,16.82
2023-05-05T03:33:12.176Z,16.89
2023-05-05T03:35:38.698Z,16.88
2023-05-05T03:38:05.203Z,16.84
2023-05-05T03:40:43.136Z,16.82
2023-05-05T03:43:11.481Z,16.77
2023-05-05T03:45:38.625Z,16.74
2023-05-05T03:48:07.754Z,16.76
2023-05-05T03:50:34.293Z,16.76
2023-05-05T03:53:00.858Z,16.75
2023-05-05T03:55:27.456Z,16.74
2023-05-05T03:57:56.261Z,16.71
2023-05-05T04:00:22.723Z,16.69
2023-05-05T04:02:51.332Z,16.69
2023-05-05T04:05:23.977Z,16.68
2023-05-05T04:07:51.470Z,16.68
2023-05-05T04:10:17.995Z,16.64
2023-05-05T04:12:44.511Z,16.61
2023-05-05T04:15:11.161Z,16.59
2023-05-05T04:17:37.826Z,16.58
2023-05-05T04:20:04.705Z,16.56
2023-05-05T04:22:31.113Z,16.54
2023-05-05T04:24:57.733Z,16.52
2023-05-05T04:27:28.886Z,16.48
2023-05-05T04:29:55.833Z,16.48
2023-05-05T04:32:22.507Z,16.45
2023-05-05T04:34:49.024Z,16.44
2023-05-05T04:37:15.933Z,16.42
2023-05-05T04:39:42.410Z,16.37
2023-05-05T04:42:09.046Z,16.34
2023-05-05T04:44:35.739Z,16.33
2023-05-05T04:47:02.782Z,16.32
2023-05-05T04:49:29.831Z,16.30
2023-05-05T04:51:56.194Z,16.26
2023-05-05T04:54:22.804Z,16.28
2023-05-05T04:56:49.536Z,16.31
2023-05-05T04:59:16.132Z,16.39
2023-05-05T05:01:45.133Z,16.41
2023-05-05T05:04:11.590Z,16.47
2023-05-05T05:06:38.014Z,16.50
2023-05-05T05:09:04.554Z,16.53
2023-05-05T05:11:30.908Z,16.55
2023-05-05T05:13:57.468Z,16.59
2023-05-05T05:16:25.115Z,16.63
2023-05-05T05:18:51.598Z,16.66
2023-05-05T05:21:18.144Z,16.74
2023-05-05T05:23:46.680Z,16.79
2023-05-05T05:26:13.373Z,16.88
2023-05-05T05:28:39.944Z,16.94
2023-05-05T05:31:06.814Z,17.00
2023-05-05T05:33:33.195Z,17.10
2023-05-05T05:35:59.609Z,17.25
2023-05-05T05:38:25.984Z,17.51
2023-05-05T05:40:54.395Z,17.84
2023-05-05T05:43:21.175Z,18.14
2023-05-05T05:45:47.778Z,18.53
2023-05-05T05:48:14.245Z,18.88
2023-05-05T05:50:40.662Z,19.34
2023-05-05T05:53:07.205Z,19.85
2023-05-05T05:55:33.718Z,20.17
2023-05-05T05:58:00.162Z,20.55
2023-05-05T06:00:27.054Z,20.89
2023-05-05T06:02:53.583Z,21.29
2023-05-05T06:05:19.988Z,21.60
2023-05-05T06:07:46.360Z,21.91
2023-05-05T06:10:26.680Z,22.22
2023-05-05T06:12:59.677Z,22.53
2023-05-05T06:15:26.225Z,22.82
2023-05-05T06:17:52.824Z,23.05
2023-05-05T06:20:19.392Z,23.30
2023-05-05T06:22:46.037Z,23.54
2023-05-05T06:25:12.599Z,23.68
2023-05-05T06:27:38.961Z,23.83
2023-05-05T06:30:07.323Z,24.02
2023-05-05T06:32:33.931Z,24.21
2023-05-05T06:35:00.944Z,24.43
2023-05-05T06:37:30.253Z,24.66
2023-05-05T06:39:56.839Z,24.82
2023-05-05T06:42:23.341Z,24.98
2023-05-05T06:44:49.942Z,25.11
2023-05-05T06:47:16.459Z,25.09
2023-05-05T06:49:42.987Z,25.16
2023-05-05T06:52:09.457Z,25.28
2023-05-05T06:54:35.961Z,25.35
2023-05-05T06:57:02.335Z,25.61
2023-05-05T06:59:28.935Z,25.79
2023-05-05T07:01:56.525Z,25.92
2023-05-05T07:04:23.472Z,25.97
2023-05-05T07:06:50.007Z,25.91
2023-05-05T07:09:19.923Z,25.92
2023-05-05T07:11:46.835Z,26.09
2023-05-05T07:14:15.830Z,26.02
2023-05-05T07:16:42.252Z,26.08
2023-05-05T07:19:08.878Z,26.07
2023-05-05T07:21:35.818Z,26.05
2023-05-05T07:24:03.319Z,26.12
2023-05-05T07:26:29.916Z,26.18
2023-05-05T07:28:57.453Z,26.39
2023-05-05T07:31:24.116Z,26.34
2023-05-05T07:33:50.624Z,25.94
2023-05-05T07:36:18.239Z,26.01
2023-05-05T07:38:44.720Z,26.18
2023-05-05T07:41:13.900Z,26.41
2023-05-05T07:43:44.265Z,26.66
2023-05-05T07:46:11.085Z,26.68
2023-05-05T07:48:39.044Z,26.75
2023-05-05T07:51:05.476Z,26.75
2023-05-05T07:53:32.022Z,26.65
2023-05-05T07:55:58.817Z,26.55
2023-05-05T07:58:25.353Z,26.49
2023-05-05T08:00:51.758Z,26.46
2023-05-05T08:03:20.380Z,26.56
2023-05-05T08:05:50.623Z,26.51
2023-05-05T08:08:18.157Z,26.53
2023-05-05T08:10:44.604Z,26.51
2023-05-05T08:13:11.075Z,26.44
2023-05-05T08:15:37.547Z,26.47
2023-05-05T08:18:04.004Z,26.73
2023-05-05T08:20:30.620Z,26.79
2023-05-05T08:22:57.088Z,27.01
2023-05-05T08:25:24.176Z,27.05
2023-05-05T08:27:50.607Z,27.03
2023-05-05T08:30:20.782Z,26.96
2023-05-05T08:32:47.344Z,26.85
2023-05-05T08:35:14.118Z,26.90
2023-05-05T08:37:40.647Z,27.06
2023-05-05T08:40:07.639Z,27.14
2023-05-05T08:42:38.660Z,27.13
2023-05-05T08:45:07.385Z,27.19
2023-05-05T08:47:35.876Z,26.96
2023-05-05T08:50:02.477Z,26.73
2023-05-05T08:52:36.368Z,26.46
2023-05-05T08:55:24.495Z,26.14
2023-05-05T08:57:54.507Z,25.88
2023-05-05T09:00:21.582Z,25.88
2023-05-05T09:02:48.956Z,25.82
2023-05-05T09:05:16.226Z,25.91
2023-05-05T09:07:44.106Z,26.17
2023-05-05T09:10:14.521Z,26.36
2023-05-05T09:12:41.921Z,26.42
2023-05-05T09:15:13.820Z,26.44
2023-05-05T09:17:46.979Z,26.30
2023-05-05T09:20:14.898Z,26.20
2023-05-05T09:22:44.717Z,25.98
2023-05-05T09:25:13.108Z,25.91
2023-05-05T09:27:42.206Z,25.65
2023-05-05T09:30:10.756Z,25.31
2023-05-05T09:32:49.350Z,25.10
2023-05-05T09:35:16.962Z,24.93
2023-05-05T09:37:43.974Z,24.83
2023-05-05T09:40:13.215Z,24.69
2023-05-05T09:42:40.936Z,24.57
2023-05-05T09:45:20.365Z,24.33
2023-05-05T09:47:47.989Z,24.06
2023-05-05T09:50:18.812Z,23.78
2023-05-05T09:52:59.645Z,23.39
2023-05-05T09:55:26.338Z,22.96
2023-05-05T09:57:52.821Z,22.61
2023-05-05T10:00:20.135Z,22.20
2023-05-05T10:02:46.818Z,21.69
2023-05-05T10:05:18.395Z,21.41
2023-05-05T10:07:45.923Z,21.28
2023-05-05T10:10:15.473Z,21.13
2023-05-05T10:12:42.696Z,21.03
2023-05-05T10:15:11.387Z,21.00
2023-05-05T10:18:02.255Z,21.01
2023-05-05T10:20:35.042Z,20.97
2023-05-05T10:23:05.586Z,20.96
2023-05-05T10:25:39.555Z,20.99
2023-05-05T10:28:11.650Z,21.00
2023-05-05T10:30:44.100Z,20.87
2023-05-05T10:33:30.194Z,20.85
2023-05-05T10:36:02.063Z,20.84
2023-05-05T10:38:31.762Z,20.83
2023-05-05T10:41:00.907Z,20.84
2023-05-05T10:43:50.006Z,20.85
2023-05-05T10:46:17.045Z,20.80
2023-05-05T10:48:57.407Z,20.80
2023-05-05T10:51:44.851Z,20.81
2023-05-05T10:54:21.486Z,20.62
2023-05-05T10:56:48.387Z,20.60
2023-05-05T10:59:39.290Z,20.39
2023-05-05T11:02:17.990Z,20.25
2023-05-05T11:04:44.604Z,20.15
2023-05-05T11:07:14.650Z,20.03
2023-05-05T11:10:06.130Z,19.94
2023-05-05T11:12:53.619Z,19.91
2023-05-05T11:15:34.938Z,19.84
2023-05-05T11:18:05.912Z,19.80
2023-05-05T11:20:40.034Z,19.77
2023-05-05T11:23:06.603Z,19.81
2023-05-05T11:25:45.293Z,19.84
2023-05-05T11:28:17.807Z,19.79
2023-05-05T11:30:56.935Z,19.75
2023-05-05T11:33:33.960Z,19.72
2023-05-05T11:36:06.806Z,19.68
2023-05-05T11:38:36.544Z,19.62
2023-05-05T11:41:14.777Z,19.48
2023-05-05T11:43:42.353Z,19.36
2023-05-05T11:46:13.022Z,19.27
2023-05-05T11:48:46.948Z,19.22
2023-05-05T11:51:14.386Z,19.01
2023-05-05T11:53:46.520Z,18.98
2023-05-05T11:56:19.362Z,18.95
2023-05-05T11:58:47.158Z,18.91
2023-05-05T12:01:14.108Z,18.85
2023-05-05T12:03:41.109Z,18.89
2023-05-05T12:06:09.363Z,18.93
2023-05-05T12:08:42.498Z,18.89
2023-05-05T12:11:11.040Z,18.89
2023-05-05T12:13:37.586Z,18.89
2023-05-05T12:16:15.263Z,18.90
2023-05-05T12:18:42.623Z,18.80
2023-05-05T12:21:19.696Z,18.91
2023-05-05T12:23:49.627Z,18.88
2023-05-05T12:26:30.364Z,18.84
2023-05-05T12:29:00.396Z,18.76
2023-05-05T12:31:44.585Z,18.72
2023-05-05T12:34:11.994Z,18.70
2023-05-05T12:36:39.609Z,18.61
2023-05-05T12:39:06.348Z,18.55
2023-05-05T12:41:35.930Z,18.49
2023-05-05T12:44:05.522Z,18.37
2023-05-05T12:46:45.328Z,18.39
2023-05-05T12:49:12.354Z,18.48
2023-05-05T12:51:39.544Z,18.52
2023-05-05T12:54:08.432Z,18.59
2023-05-05T12:56:40.652Z,18.59
2023-05-05T12:59:29.995Z,18.61
2023-05-05T13:01:59.834Z,18.63
2023-05-05T13:04:27.892Z,18.55
2023-05-05T13:07:14.821Z,18.44
2023-05-05T13:09:41.503Z,18.44
2023-05-05T13:12:11.561Z,18.51
2023-05-05T13:14:38.789Z,18.54
2023-05-05T13:17:05.127Z,18.56
2023-05-05T13:19:31.703Z,18.58
2023-05-05T13:21:58.924Z,18.59
2023-05-05T13:24:34.918Z,18.63
2023-05-05T13:27:11.839Z,18.57
2023-05-05T13:29:38.367Z,18.54
2023-05-05T13:32:04.989Z,18.58
2023-05-05T13:34:31.417Z,18.58
2023-05-05T13:36:57.820Z,18.55
2023-05-05T13:39:25.409Z,18.54
2023-05-05T13:41:51.972Z,18.47
2023-05-05T13:44:18.472Z,18.36
2023-05-05T13:46:45.129Z,18.28
2023-05-05T13:49:11.742Z,18.22
2023-05-05T13:51:38.943Z,18.17
2023-05-05T13:54:06.555Z,18.12
2023-05-05T13:56:35.121Z,18.05
2023-05-05T13:59:02.464Z,17.95
2023-05-05T14:01:30.033Z,17.85
2023-05-05T14:03:57.995Z,17.74
2023-05-05T14:06:24.898Z,17.66
2023-05-05T14:08:52.866Z,17.67
2023-05-05T14:11:20.537Z,17.68
2023-05-05T14:13:47.606Z,17.69
2023-05-05T14:16:15.581Z,17.77
2023-05-05T14:18:42.482Z,17.70
2023-05-05T14:21:08.971Z,17.69
2023-05-05T14:23:35.531Z,17.68
2023-05-05T14:26:02.085Z,17.70
2023-05-05T14:28:28.610Z,17.58
2023-05-05T14:30:55.095Z,17.58
2023-05-05T14:33:22.257Z,17.55
2023-05-05T14:35:48.990Z,17.55
2023-05-05T14:38:15.596Z,17.62
2023-05-05T14:40:45.027Z,17.70
2023-05-05T14:43:11.443Z,17.78
2023-05-05T14:45:37.986Z,17.76
2023-05-05T14:48:04.485Z,17.85
2023-05-05T14:50:30.962Z,17.98
2023-05-05T14:52:57.401Z,18.08
2023-05-05T14:55:25.009Z,18.11
2023-05-05T14:57:51.909Z,18.20
2023-05-05T15:00:18.668Z,18.30
2023-05-05T15:02:45.158Z,18.43
2023-05-05T15:05:11.792Z,18.51
2023-05-05T15:07:38.392Z,18.56
2023-05-05T15:10:05.344Z,18.54
2023-05-05T15:12:35.196Z,18.58
2023-05-05T15:15:02.718Z,18.59
2023-05-05T15:17:30.775Z,18.62
2023-05-05T15:19:57.495Z,18.63
2023-05-05T15:22:24.171Z,18.63
2023-05-05T15:24:50.873Z,18.68
2023-05-05T15:27:18.279Z,18.67
2023-05-05T15:29:45.002Z,18.68
2023-05-05T15:32:11.568Z,18.71
2023-05-05T15:34:38.131Z,18.73
2023-05-05T15:37:04.720Z,18.74
2023-05-05T15:39:33.776Z,18.78
2023-05-05T15:42:03.615Z,18.77
2023-05-05T15:44:30.487Z,18.82
2023-05-05T15:46:57.170Z,18.86
2023-05-05T15:49:23.664Z,18.91
2023-05-05T15:51:50.260Z,18.87
2023-05-05T15:54:17.115Z,18.85
2023-05-05T15:56:43.564Z,18.86
2023-05-05T15:59:12.654Z,18.95
2023-05-05T16:01:39.178Z,19.04
2023-05-05T16:04:05.669Z,19.09
2023-05-05T16:06:32.285Z,19.06
2023-05-05T16:08:58.783Z,19.06
2023-05-05T16:11:26.321Z,19.01
2023-05-05T16:13:53.135Z,19.02
2023-05-05T16:16:19.635Z,19.02
2023-05-05T16:18:46.327Z,18.95
2023-05-05T16:21:12.777Z,18.95
2023-05-05T16:23:39.287Z,18.91
2023-05-05T16:26:05.858Z,18.89
2023-05-05T16:28:34.124Z,18.92
2023-05-05T16:31:02.224Z,18.98
2023-05-05T16:33:29.220Z,19.01
2023-05-05T16:35:58.506Z,19.03
2023-05-05T16:38:24.946Z,19.07
2023-05-05T16:40:51.580Z,19.10
2023-05-05T16:43:20.661Z,19.12
2023-05-05T16:45:47.211Z,19.01
2023-05-05T16:48:14.661Z,18.89
2023-05-05T16:50:41.447Z,18.90
2023-05-05T16:53:08.933Z,18.90
2023-05-05T16:55:35.632Z,18.82
2023-05-05T16:58:02.090Z,18.75
2023-05-05T17:00:29.813Z,18.68
2023-05-05T17:02:56.783Z,18.64
2023-05-05T17:05:23.371Z,18.67
2023-05-05T17:07:49.932Z,18.71
2023-05-05T17:10:16.595Z,18.72
2023-05-05T17:12:43.026Z,18.76
2023-05-05T17:15:09.994Z,18.79
2023-05-05T17:17:36.689Z,18.73
2023-05-05T17:20:04.780Z,18.70
2023-05-05T17:22:31.983Z,18.63
2023-05-05T17:24:58.456Z,18.51
2023-05-05T17:27:24.920Z,18.55
2023-05-05T17:29:51.828Z,18.57
2023-05-05T17:32:18.217Z,18.57
2023-05-05T17:34:44.592Z,18.58
2023-05-05T17:37:10.990Z,18.61
2023-05-05T17:39:37.414Z,18.62
2023-05-05T17:42:03.990Z,18.67
2023-05-05T17:44:31.519Z,18.72
2023-05-05T17:46:58.351Z,18.78
2023-05-05T17:49:25.354Z,18.80
2023-05-05T17:51:52.032Z,18.78
2023-05-05T17:54:21.178Z,18.86
2023-05-05T17:56:47.591Z,18.83
2023-05-05T17:59:13.973Z,18.80
2023-05-05T18:01:45.071Z,18.72
2023-05-05T18:04:11.569Z,18.68
2023-05-05T18:06:38.214Z,18.60
2023-05-05T18:09:04.776Z,18.57
2023-05-05T18:11:31.279Z,18.57
2023-05-05T18:13:57.935Z,18.51
2023-05-05T18:16:24.405Z,18.56
2023-05-05T18:18:53.803Z,18.57
2023-05-05T18:21:20.338Z,18.54
2023-05-05T18:23:46.722Z,18.53
2023-05-05T18:26:13.185Z,18.50
2023-05-05T18:28:40.575Z,18.44
2023-05-05T18:31:07.328Z,18.37
2023-05-05T18:33:33.771Z,18.35
2023-05-05T18:36:01.142Z,18.27
2023-05-05T18:38:27.666Z,18.21
2023-05-05T18:40:54.144Z,18.16
2023-05-05T18:43:20.806Z,18.01
2023-05-05T18:45:47.252Z,17.94
2023-05-05T18:48:16.780Z,17.80
2023-05-05T18:50:43.364Z,17.78
2023-05-05T18:53:10.779Z,17.70
2023-05-05T18:55:37.308Z,17.63
2023-05-05T18:58:03.666Z,17.58
2023-05-05T19:00:30.138Z,17.55
2023-05-05T19:02:56.899Z,17.50
2023-05-05T19:05:23.530Z,17.49
2023-05-05T19:07:49.957Z,17.43
2023-05-05T19:10:16.392Z,17.37
2023-05-05T19:12:42.852Z,17.35
2023-05-05T19:15:13.810Z,17.32
2023-05-05T19:17:40.278Z,17.28
2023-05-05T19:20:07.561Z,17.26
2023-05-05T19:22:34.070Z,17.22
2023-05-05T19:25:02.678Z,17.18
2023-05-05T19:27:29.333Z,17.10
2023-05-05T19:29:55.896Z,17.06
2023-05-05T19:32:22.480Z,17.01
2023-05-05T19:34:49.109Z,16.98
2023-05-05T19:37:15.682Z,16.91
2023-05-05T19:39:44.333Z,16.86
2023-05-05T19:42:11.159Z,16.81
2023-05-05T19:44:37.566Z,16.77
2023-05-05T19:47:04.484Z,16.71
2023-05-05T19:49:30.870Z,16.68
2023-05-05T19:51:58.751Z,16.63
2023-05-05T19:54:25.654Z,16.59
2023-05-05T19:56:52.208Z,16.57
2023-05-05T19:59:18.577Z,16.50
2023-05-05T20:01:45.182Z,16.47
2023-05-05T20:04:11.764Z,16.45
2023-05-05T20:06:38.277Z,16.42
2023-05-05T20:09:04.839Z,16.36
2023-05-05T20:11:31.487Z,16.32
2023-05-05T20:14:01.424Z,16.23
2023-05-05T20:16:27.859Z,16.21
2023-05-05T20:18:54.578Z,16.16
2023-05-05T20:21:21.237Z,16.11
2023-05-05T20:23:47.858Z,16.09
2023-05-05T20:26:14.521Z,16.03
2023-05-05T20:28:44.820Z,15.96
2023-05-05T20:31:12.080Z,15.93
2023-05-05T20:33:38.513Z,15.90
2023-05-05T20:36:05.369Z,15.88
2023-05-05T20:38:31.765Z,15.83
2023-05-05T20:40:58.147Z,15.83
2023-05-05T20:43:25.480Z,15.85
2023-05-05T20:45:52.069Z,15.83
2023-05-05T20:48:18.860Z,15.79
2023-05-05T20:50:45.688Z,15.78
2023-05-05T20:53:16.031Z,15.76
2023-05-05T20:55:42.619Z,15.75
2023-05-05T20:58:11.622Z,15.74
2023-05-05T21:00:38.212Z,15.71
2023-05-05T21:03:04.919Z,15.69
2023-05-05T21:05:31.691Z,15.70
2023-05-05T21:08:01.175Z,15.70
2023-05-05T21:10:29.099Z,15.60
2023-05-05T21:12:55.821Z,15.53
2023-05-05T21:15:22.655Z,15.60
2023-05-05T21:17:49.086Z,15.56
2023-05-05T21:20:16.585Z,15.53
2023-05-05T21:22:43.126Z,15.51
2023-05-05T21:25:20.791Z,15.50
2023-05-05T21:27:48.341Z,15.38
2023-05-05T21:30:15.399Z,15.43
2023-05-05T21:32:42.587Z,15.41
2023-05-05T21:35:09.335Z,15.43
2023-05-05T21:37:39.354Z,15.39
2023-05-05T21:40:09.504Z,15.30
2023-05-05T21:42:36.200Z,15.37
2023-05-05T21:45:02.712Z,15.37
2023-05-05T21:47:29.191Z,15.36
2023-05-05T21:49:55.605Z,15.33
2023-05-05T21:52:21.943Z,15.32
2023-05-05T21:54:48.387Z,15.32
2023-05-05T21:57:14.882Z,15.29
2023-05-05T21:59:41.355Z,15.25
2023-05-05T22:02:07.785Z,15.26
2023-05-05T22:04:34.183Z,15.25
2023-05-05T22:07:00.841Z,15.25
2023-05-05T22:09:29.011Z,15.22
2023-05-05T22:11:55.492Z,15.18
2023-05-05T22:14:21.989Z,15.14
2023-05-05T22:16:48.499Z,15.13
2023-05-05T22:19:14.916Z,15.10
2023-05-05T22:21:41.372Z,15.11
2023-05-05T22:24:07.889Z,15.11
2023-05-05T22:26:34.275Z,15.08
2023-05-05T22:29:03.057Z,15.06
2023-05-05T22:31:30.607Z,15.07
2023-05-05T22:33:57.352Z,15.06
2023-05-05T22:36:27.521Z,15.07
2023-05-05T22:38:54.176Z,15.06
2023-05-05T22:41:21.043Z,15.04
2023-05-05T22:43:49.073Z,15.04
2023-05-05T22:46:17.449Z,15.04
2023-05-05T22:48:43.946Z,15.01
2023-05-05T22:51:11.276Z,14.96
2023-05-05T22:53:38.593Z,14.96
2023-05-05T22:56:05.410Z,14.97
2023-05-05T22:58:31.853Z,14.97
2023-05-05T23:00:58.313Z,14.98
2023-05-05T23:03:24.800Z,14.94
2023-05-05T23:05:51.188Z,14.96
2023-05-05T23:08:17.598Z,14.99
2023-05-05T23:10:44.155Z,15.01
2023-05-05T23:13:10.786Z,14.98
2023-05-05T23:15:43.540Z,14.92
2023-05-05T23:18:09.922Z,14.93
2023-05-05T23:20:36.449Z,14.97
2023-05-05T23:23:04.582Z,14.93
2023-05-05T23:25:31.033Z,14.95
2023-05-05T23:27:57.421Z,14.95
2023-05-05T23:30:23.856Z,14.98
2023-05-05T23:32:50.575Z,14.97
2023-05-05T23:35:20.204Z,14.94
2023-05-05T23:37:46.736Z,14.95
2023-05-05T23:40:16.117Z,14.92
2023-05-05T23:42:42.494Z,14.90
2023-05-05T23:45:09.700Z,14.89
2023-05-05T23:47:36.491Z,14.87
2023-05-05T23:50:03.573Z,14.84
2023-05-05T23:52:33.073Z,14.80
2023-05-05T23:54:59.560Z,14.76
2023-05-05T23:57:28.702Z,14.72
